Time;durP1;ratioP1;P1;durP2;ratioP2;P2;SDS_P1;SDS_P2;PMS_P1;PMS_P2;Temp;Humidity;BMP_temperature;BMP_pressure;BME280_temperature;BME280_humidity;BME280_pressure;Samples;Min_cycle;Max_cycle;Signal;HPM_P1;HPM_P2
2023/01/23 00:01:51;;;;;;;0.88;0.85;;;;;;;0.98;92.48;100718.38;5096279;28;20308;-68
2023/01/23 00:04:19;;;;;;;1.55;1.42;;;;;;;0.94;92.28;100716.44;5096338;28;20036;-68
2023/01/23 00:06:49;;;;;;;0.80;0.80;;;;;;;0.97;92.09;100723.28;5096237;28;20067;-68
2023/01/23 00:09:19;;;;;;;2.13;1.63;;;;;;;0.97;92.36;100724.16;5096280;28;20101;-68
2023/01/23 00:11:49;;;;;;;1.80;1.70;;;;;;;0.98;92.67;100727.53;5096484;28;20490;-68
2023/01/23 00:14:18;;;;;;;1.58;1.48;;;;;;;0.92;92.11;100718.03;5096125;28;20123;-68
2023/01/23 00:16:46;;;;;;;1.08;1.05;;;;;;;0.97;91.89;100731.69;5094939;28;20048;-67
2023/01/23 00:19:15;;;;;;;0.70;0.70;;;;;;;0.95;92.00;100715.69;5096276;28;20040;-68
2023/01/23 00:21:44;;;;;;;22.67;3.63;;;;;;;0.95;91.82;100718.19;5096065;28;20440;-67
2023/01/23 00:24:13;;;;;;;1.60;1.50;;;;;;;0.93;92.46;100724.78;5095893;28;20139;-67
2023/01/23 00:26:42;;;;;;;10.95;3.00;;;;;;;0.92;92.30;100720.53;5096000;28;20486;-67
2023/01/23 00:29:14;;;;;;;3.42;2.72;;;;;;;0.91;92.00;100721.31;5096077;28;20093;-67
2023/01/23 00:31:43;;;;;;;4.28;3.38;;;;;;;0.89;92.84;100717.84;5096452;28;20074;-68
2023/01/23 00:34:14;;;;;;;5.32;3.80;;;;;;;0.98;92.49;100725.03;5095272;28;20048;-68
2023/01/23 00:36:45;;;;;;;2.50;2.30;;;;;;;1.09;92.55;100736.50;5095786;28;20067;-67
2023/01/23 00:39:17;;;;;;;3.13;2.85;;;;;;;1.06;92.64;100714.59;5095657;28;20067;-67
2023/01/23 00:41:47;;;;;;;1.90;1.55;;;;;;;1.17;92.42;100732.78;5095532;28;20044;-68
2023/01/23 00:44:18;;;;;;;1.67;1.58;;;;;;;1.18;92.52;100732.84;5095858;28;20122;-67
2023/01/23 00:46:47;;;;;;;2.10;2.00;;;;;;;1.21;92.94;100738.03;5095814;28;20436;-67
2023/01/23 00:49:18;;;;;;;3.20;2.65;;;;;;;1.15;92.10;100734.34;5095444;28;20109;-68
2023/01/23 00:51:47;;;;;;;1.75;1.65;;;;;;;1.22;92.17;100749.81;5095711;28;20559;-67
2023/01/23 00:54:16;;;;;;;2.10;2.00;;;;;;;1.21;92.37;100740.56;5095370;28;20097;-67
2023/01/23 00:56:45;;;;;;;2.47;1.73;;;;;;;1.20;92.21;100731.28;5095323;28;20040;-68
2023/01/23 00:59:15;;;;;;;2.83;2.08;;;;;;;1.19;92.16;100732.06;5094050;28;20054;-67
2023/01/23 01:01:45;;;;;;;1.63;1.55;;;;;;;1.16;92.58;100729.38;5095425;28;20489;-67
2023/01/23 01:04:14;;;;;;;1.45;1.38;;;;;;;1.08;92.33;100715.53;5095157;28;20052;-68
2023/01/23 01:06:43;;;;;;;1.00;1.00;;;;;;;0.98;92.72;100690.72;5095116;28;20075;-68
2023/01/23 01:09:12;;;;;;;2.47;1.23;;;;;;;1.15;92.32;100725.13;5094057;28;20272;-67
2023/01/23 01:11:41;;;;;;;3.33;2.85;;;;;;;1.19;92.63;100729.56;5094958;28;20273;-68
2023/01/23 01:14:10;;;;;;;5.40;2.00;;;;;;;1.09;92.39;100722.31;5094983;28;20093;-68
2023/01/23 01:16:43;;;;;;;;;;;;;;;1.16;91.68;100734.41;5095352;28;20312;-67
2023/01/23 01:19:15;;;;;;;2.97;2.78;;;;;;;1.16;92.47;100729.38;5095238;28;19920;-67
2023/01/23 01:21:44;;;;;;;1.90;1.80;;;;;;;1.15;91.69;100721.78;5093823;28;20048;-68
2023/01/23 01:24:13;;;;;;;0.98;0.98;;;;;;;1.16;92.40;100728.50;5094621;28;20147;-68
2023/01/23 01:26:41;;;;;;;1.25;1.15;;;;;;;1.06;92.13;100707.06;5094713;28;20032;-67
2023/01/23 01:29:10;;;;;;;2.23;2.10;;;;;;;1.17;91.90;100726.09;5094958;28;20040;-68
2023/01/23 01:31:39;;;;;;;2.90;2.70;;;;;;;0.96;91.87;100689.75;5093387;28;20043;-67
2023/01/23 01:34:08;;;;;;;5.13;2.43;;;;;;;1.18;92.58;100727.81;5094555;28;20338;-68
2023/01/23 01:36:38;;;;;;;1.67;1.58;;;;;;;1.16;92.28;100718.47;5094553;28;20322;-68
2023/01/23 01:39:07;;;;;;;1.58;1.48;;;;;;;1.19;91.68;100724.53;5094852;28;20048;-67
2023/01/23 01:41:36;;;;;;;6.88;1.65;;;;;;;0.94;91.85;100680.41;5093510;28;20363;-68
2023/01/23 01:44:06;;;;;;;1.40;1.30;;;;;;;1.19;91.77;100724.53;5094192;28;20071;-68
2023/01/23 01:46:35;;;;;;;2.22;2.05;;;;;;;1.21;91.76;100722.97;5092607;28;20044;-67
2023/01/23 01:49:08;;;;;;;2.20;1.60;;;;;;;1.20;91.64;100716.19;5094664;28;20060;-68
2023/01/23 01:51:44;;;;;;;2.97;2.65;;;;;;;1.16;92.01;100713.44;5094328;28;20052;-67
2023/01/23 01:54:20;;;;;;;1.45;1.35;;;;;;;1.13;91.63;100709.09;5093181;28;20040;-68
2023/01/23 01:56:54;;;;;;;4.40;2.40;;;;;;;0.96;92.11;100682.22;5094243;28;20048;-67
2023/01/23 01:59:27;;;;;;;2.30;2.13;;;;;;;1.08;91.42;100705.47;5092998;28;20046;-68
2023/01/23 02:02:04;;;;;;;3.05;2.83;;;;;;;0.92;91.87;100672.78;5093185;28;20062;-68
2023/01/23 02:04:33;;;;;;;1.98;1.75;;;;;;;1.11;91.45;100705.66;5094031;28;20089;-67
2023/01/23 02:07:11;;;;;;;0.68;0.68;;;;;;;1.02;91.72;100705.16;5094017;28;20151;-67
2023/01/23 02:09:41;;;;;;;1.00;1.00;;;;;;;1.08;91.52;100717.22;5094046;28;20102;-67
2023/01/23 02:12:10;;;;;;;1.17;1.13;;;;;;;1.02;92.27;100696.75;5092771;28;20048;-67
2023/01/23 02:14:42;;;;;;;4.38;2.80;;;;;;;1.11;91.92;100710.69;5094005;28;20040;-68
2023/01/23 02:17:11;;;;;;;2.17;2.05;;;;;;;1.15;92.08;100711.72;5093026;28;20071;-68
2023/01/23 02:19:50;;;;;;;0.90;0.90;;;;;;;1.15;91.46;100707.53;5094207;28;20097;-67
2023/01/23 02:22:31;;;;;;;3.95;3.10;;;;;;;1.15;92.05;100707.53;5092835;28;20287;-68
2023/01/23 02:25:08;;;;;;;1.83;1.73;;;;;;;1.17;91.86;100710.16;5094886;28;20051;-68
2023/01/23 02:27:39;;;;;;;1.77;1.67;;;;;;;1.12;91.38;100704.88;5092943;28;20075;-67
2023/01/23 02:30:09;;;;;;;2.30;2.10;;;;;;;1.18;91.50;100710.22;5093778;28;20044;-67
2023/01/23 02:32:38;;;;;;;1.30;1.10;;;;;;;1.19;91.86;100704.41;5093696;28;20040;-68
2023/01/23 02:35:13;;;;;;;1.57;1.47;;;;;;;1.20;92.15;100711.16;5093700;28;20044;-68
2023/01/23 02:37:46;;;;;;;2.03;1.92;;;;;;;1.03;91.97;100685.94;5093693;28;20048;-66
2023/01/23 02:40:16;;;;;;;0.90;0.80;;;;;;;1.03;91.23;100681.75;5093678;28;20044;-67
2023/01/23 02:42:49;;;;;;;2.05;1.88;;;;;;;1.15;92.09;100705.03;5092730;28;20051;-67
2023/01/23 02:45:19;;;;;;;3.42;3.15;;;;;;;1.24;91.20;100713.06;5093481;28;20097;-67
2023/01/23 02:47:50;;;;;;;1.10;1.10;;;;;;;1.22;91.93;100702.03;5093576;28;20048;-67
2023/01/23 02:50:19;;;;;;;1.13;1.07;;;;;;;1.28;91.97;100714.94;5092639;28;20123;-67
2023/01/23 02:52:53;;;;;;;1.70;1.60;;;;;;;1.27;91.36;100708.19;5092307;28;20052;-67
2023/01/23 02:55:22;;;;;;;3.38;2.38;;;;;;;1.25;91.90;100704.72;5092578;28;20090;-68
2023/01/23 02:57:52;;;;;;;1.92;1.67;;;;;;;1.28;91.19;100712.44;5095900;28;20051;-67
2023/01/23 03:00:21;;;;;;;2.83;2.63;;;;;;;1.32;91.16;100714.31;5096717;28;20052;-67
2023/01/23 03:02:51;;;;;;;1.23;1.13;;;;;;;1.38;91.35;100712.91;5097502;28;20048;-67
2023/01/23 03:05:20;;;;;;;15.65;2.83;;;;;;;1.41;91.95;100710.56;5096286;28;20375;-67
2023/01/23 03:07:52;;;;;;;2.53;2.25;;;;;;;1.37;91.65;100708.69;5097802;28;20123;-68
2023/01/23 03:10:23;;;;;;;0.50;0.50;;;;;;;1.35;91.75;100699.41;5097410;28;20082;-68
2023/01/23 03:12:57;;;;;;;2.40;1.88;;;;;;;1.35;91.05;100696.88;5097331;28;20039;-68
2023/01/23 03:15:26;;;;;;;2.53;2.33;;;;;;;1.38;91.75;100695.31;5096379;28;20048;-68
2023/01/23 03:17:55;;;;;;;;;;;;;;;1.35;91.54;100696.88;5097957;28;20551;-67
2023/01/23 03:20:25;;;;;;;6.18;2.30;;;;;;;1.36;90.88;100690.22;5097225;28;19974;-67
2023/01/23 03:22:55;;;;;;;1.30;1.02;;;;;;;1.33;91.20;100688.41;5097170;28;20487;-68
2023/01/23 03:25:23;;;;;;;1.17;1.10;;;;;;;1.40;90.97;100684.53;5097059;28;20094;-67
2023/01/23 03:27:55;;;;;;;0.70;0.70;;;;;;;1.38;91.41;100665.13;5095893;28;20044;-67
2023/01/23 03:30:24;;;;;;;3.90;3.55;;;;;;;1.42;90.93;100662.00;5095830;28;20486;-68
2023/01/23 03:32:53;;;;;;;1.08;1.02;;;;;;;1.45;91.48;100654.59;5095849;28;20036;-68
2023/01/23 03:35:22;;;;;;;2.08;1.35;;;;;;;1.48;90.79;100657.28;5096913;28;20036;-68
2023/01/23 03:37:53;;;;;;;0.77;0.77;;;;;;;1.53;91.17;100660.88;5096880;28;20052;-68
2023/01/23 03:43:06;;;;;;;1.65;1.55;;;;;;;1.63;91.24;100668.97;5096763;28;20044;-68
2023/01/23 03:45:41;;;;;;;0.65;0.65;;;;;;;1.72;91.03;100683.66;5095681;28;20062;-68
2023/01/23 03:48:10;;;;;;;0.93;0.90;;;;;;;1.73;91.22;100682.88;5095493;28;20036;-69
2023/01/23 03:50:39;;;;;;;1.23;1.13;;;;;;;1.74;91.35;100682.09;5095446;28;20044;-68
2023/01/23 03:53:07;;;;;;;1.87;1.77;;;;;;;1.75;90.84;100676.28;5095970;28;20478;-68
2023/01/23 03:55:38;;;;;;;2.50;2.30;;;;;;;1.77;91.22;100674.72;5096509;28;20082;-68
2023/01/23 03:58:09;;;;;;;1.80;1.65;;;;;;;1.78;90.49;100673.91;5095431;28;20040;-68
2023/01/23 04:00:41;;;;;;;2.45;1.85;;;;;;;1.83;90.38;100690.09;5095294;28;20044;-69
2023/01/23 04:03:09;;;;;;;0.98;0.95;;;;;;;1.84;90.97;100679.25;5095156;28;20042;-69
2023/01/23 04:05:40;;;;;;;3.45;2.65;;;;;;;1.80;90.15;100657.25;5096275;28;20036;-69
2023/01/23 04:08:08;;;;;;;2.67;1.55;;;;;;;1.79;90.30;100663.06;5095685;28;20486;-69
2023/01/23 04:10:37;;;;;;;0.75;0.75;;;;;;;1.76;90.15;100666.28;5095033;28;20097;-69
2023/01/23 04:13:15;;;;;;;0.63;0.63;;;;;;;1.69;90.01;100668.41;5096528;28;20101;-69
2023/01/23 04:15:45;;;;;;;1.67;1.58;;;;;;;1.70;90.04;100670.16;5096432;28;20052;-69
2023/01/23 04:18:16;;;;;;;2.88;1.45;;;;;;;1.69;90.64;100668.41;5095381;28;20082;-69
2023/01/23 04:20:45;;;;;;;4.45;3.08;;;;;;;1.71;90.58;100661.81;5094763;28;20045;-69
2023/01/23 04:23:14;;;;;;;4.47;2.65;;;;;;;1.67;90.06;100650.75;5095875;28;20613;-69
2023/01/23 04:25:43;;;;;;;0.98;0.98;;;;;;;1.72;89.97;100663.53;5094743;28;20059;-69
2023/01/23 04:28:15;;;;;;;3.35;2.85;;;;;;;1.75;90.12;100663.72;5095934;28;20059;-69
2023/01/23 04:30:47;;;;;;;1.45;1.35;;;;;;;1.72;90.06;100654.34;5096088;28;20056;-69
2023/01/23 04:33:22;;;;;;;1.88;1.77;;;;;;;1.76;89.98;100661.25;5094835;28;20059;-69
2023/01/23 04:35:54;;;;;;;3.40;2.45;;;;;;;1.77;90.50;100662.13;5094595;28;20044;-69
2023/01/23 04:38:24;;;;;;;1.38;1.27;;;;;;;1.77;90.27;100660.47;5094559;28;20044;-69
2023/01/23 04:40:53;;;;;;;2.80;2.38;;;;;;;1.76;90.48;100646.16;5095214;28;20079;-69
2023/01/23 04:43:24;;;;;;;1.75;1.65;;;;;;;1.78;89.78;100648.75;5094649;28;20513;-69
2023/01/23 04:45:55;;;;;;;1.95;1.02;;;;;;;1.77;89.59;100626.91;5095597;28;20044;-69
2023/01/23 04:48:27;;;;;;;1.40;1.30;;;;;;;1.75;90.00;100628.47;5095830;28;20498;-69
2023/01/23 04:50:56;;;;;;;0.70;0.70;;;;;;;1.76;90.09;100651.19;5094248;28;20497;-69
2023/01/23 04:53:26;;;;;;;1.65;1.55;;;;;;;1.60;90.16;100622.69;5095672;28;20516;-69
2023/01/23 04:56:00;;;;;;;2.28;2.10;;;;;;;1.86;89.54;100657.53;5095685;28;20490;-69
2023/01/23 04:58:31;;;;;;;3.00;2.80;;;;;;;1.89;89.85;100668.63;5095903;28;20539;-69
2023/01/23 05:01:03;;;;;;;1.05;1.05;;;;;;;1.92;89.50;100662.88;5095281;28;20051;-69
2023/01/23 05:03:36;;;;;;;1.80;1.42;;;;;;;1.93;89.91;100672.16;5095460;28;20048;-69
2023/01/23 05:06:05;;;;;;;7.10;2.70;;;;;;;1.95;89.79;100673.97;5093930;28;20044;-69
2023/01/23 05:08:35;;;;;;;0.60;0.60;;;;;;;1.98;89.20;100663.19;5095460;28;20555;-69
2023/01/23 05:11:31;;;;;;;2.92;2.60;;;;;;;2.02;89.50;100660.00;5093413;28;20066;-69
2023/01/23 05:14:02;;;;;;;0.40;0.40;;;;;;;2.03;89.82;100661.75;5093770;28;20036;-69
2023/01/23 05:16:35;;;;;;;2.50;2.30;;;;;;;2.05;89.30;100665.19;5094114;28;20097;-69
2023/01/23 05:19:27;;;;;;;1.63;1.52;;;;;;;2.07;88.76;100660.22;5088990;28;20101;-69
2023/01/23 05:21:58;;;;;;;1.35;1.20;;;;;;;2.12;88.59;100652.13;5095758;28;20434;-69
2023/01/23 05:24:27;;;;;;;2.08;1.98;;;;;;;2.17;88.95;100650.69;5093482;28;20055;-69
2023/01/23 05:26:57;;;;;;;1.02;0.98;;;;;;;2.18;89.26;100649.91;5094738;28;20059;-68
2023/01/23 05:29:31;;;;;;;1.27;1.13;;;;;;;2.16;88.55;100645.59;5094733;28;20048;-69
2023/01/23 05:32:10;;;;;;;2.25;2.13;;;;;;;2.07;88.84;100653.53;5093449;28;20048;-69
2023/01/23 05:34:39;;;;;;;0.57;0.57;;;;;;;2.06;88.47;100656.00;5094566;28;20047;-69
2023/01/23 05:37:19;;;;;;;1.17;1.10;;;;;;;2.07;88.47;100655.19;5094915;28;20074;-69
2023/01/23 05:39:52;;;;;;;1.85;1.75;;;;;;;2.09;88.24;100636.84;5094851;28;20459;-70
2023/01/23 05:42:22;;;;;;;3.80;1.58;;;;;;;2.12;87.98;100641.19;5094565;28;20052;-69
2023/01/23 05:45:05;;;;;;;4.68;2.00;;;;;;;2.17;87.68;100647.31;5094329;28;20044;-69
2023/01/23 05:47:40;;;;;;;0.60;0.60;;;;;;;2.15;87.86;100672.41;5094677;28;20428;-69
2023/01/23 05:50:14;;;;;;;0.65;0.65;;;;;;;2.12;87.41;100677.28;5093382;28;20390;-69
2023/01/23 05:52:44;;;;;;;0.90;0.90;;;;;;;2.09;87.15;100667.06;5094288;28;20490;-69
2023/01/23 05:55:13;;;;;;;;;;;;;;;2.07;87.29;100671.16;5093389;28;20043;-69
2023/01/23 05:57:45;;;;;;;0.70;0.70;;;;;;;2.06;87.68;100666.94;5094599;28;19924;-69
2023/01/23 06:00:27;;;;;;;2.22;1.65;;;;;;;2.03;87.37;100666.78;5094462;28;20048;-69
2023/01/23 06:03:16;;;;;;;0.95;0.95;;;;;;;1.98;87.12;100680.78;5094386;28;20048;-69
2023/01/23 06:06:08;;;;;;;2.42;2.28;;;;;;;1.95;87.45;100678.13;5088183;28;20036;-69
2023/01/23 06:08:37;;;;;;;1.70;1.60;;;;;;;1.97;87.55;100677.41;5092820;28;20494;-69
2023/01/23 06:11:07;;;;;;;1.50;1.40;;;;;;;1.97;87.74;100676.53;5094351;28;20048;-69
2023/01/23 06:13:36;;;;;;;4.40;2.00;;;;;;;1.95;87.55;100688.19;5094119;28;20054;-69
2023/01/23 06:16:08;;;;;;;3.65;2.65;;;;;;;1.87;87.62;100671.88;5076079;28;20036;-69
2023/01/23 06:18:39;;;;;;;0.68;0.68;;;;;;;2.03;87.72;100686.91;5093016;28;20067;-69
2023/01/23 06:21:09;;;;;;;1.00;0.98;;;;;;;2.08;87.70;100680.47;5094121;28;20043;-69
2023/01/23 06:23:39;;;;;;;0.50;0.50;;;;;;;2.11;87.12;100687.31;5093989;28;20074;-69
2023/01/23 06:26:10;;;;;;;1.50;1.27;;;;;;;2.18;88.08;100696.88;5093956;28;20044;-68
2023/01/23 06:28:39;;;;;;;4.60;1.75;;;;;;;2.23;88.13;100706.38;5092540;28;20424;-69
2023/01/23 06:31:09;;;;;;;1.15;1.10;;;;;;;2.24;88.05;100702.19;5092319;28;20131;-69
2023/01/23 06:33:50;;;;;;;1.77;1.67;;;;;;;2.29;86.90;100700.78;5094331;28;20048;-69
2023/01/23 06:36:23;;;;;;;0.80;0.80;;;;;;;2.32;87.89;100696.75;5094111;28;20051;-68
2023/01/23 06:38:52;;;;;;;1.38;1.27;;;;;;;2.29;87.14;100691.56;5092386;28;20123;-69
2023/01/23 06:41:26;;;;;;;0.85;0.85;;;;;;;2.39;87.07;100702.94;5093556;28;20050;-68
2023/01/23 06:43:59;;;;;;;1.40;1.30;;;;;;;2.45;87.28;100704.09;5093850;28;20048;-69
2023/01/23 06:46:30;;;;;;;0.85;0.85;;;;;;;2.45;87.13;100698.19;5093541;28;20044;-69
2023/01/23 06:48:59;;;;;;;1.73;1.63;;;;;;;2.50;86.55;100712.75;5093420;28;20056;-69
2023/01/23 06:51:30;;;;;;;1.13;1.05;;;;;;;2.46;86.41;100698.28;5093143;28;20048;-69
2023/01/23 06:53:59;;;;;;;1.55;1.45;;;;;;;2.53;86.66;100710.38;5093734;28;20093;-70
2023/01/23 06:56:29;;;;;;;0.68;0.68;;;;;;;2.58;86.44;100711.47;5094309;28;20106;-69
2023/01/23 06:58:59;;;;;;;1.17;1.08;;;;;;;2.63;86.25;100714.19;5093386;28;20097;-69
2023/01/23 07:01:35;;;;;;;0.40;0.40;;;;;;;2.65;86.08;100718.50;5092465;28;20056;-69
2023/01/23 07:04:07;;;;;;;1.50;1.40;;;;;;;2.67;86.08;100718.56;5093780;28;20044;-69
2023/01/23 07:06:38;;;;;;;2.65;2.10;;;;;;;2.67;85.91;100727.00;5093260;28;20482;-70
2023/01/23 07:09:07;;;;;;;1.65;0.93;;;;;;;2.66;85.33;100725.25;5092184;28;20075;-69
2023/01/23 07:11:37;;;;;;;1.48;1.38;;;;;;;2.68;85.72;100728.75;5093581;28;20063;-69
2023/01/23 07:14:07;;;;;;;0.90;0.90;;;;;;;2.75;85.61;100731.53;5093610;28;20105;-69
2023/01/23 07:16:40;;;;;;;0.82;0.82;;;;;;;2.78;85.27;100729.19;5093182;28;20044;-69
2023/01/23 07:19:09;;;;;;;1.25;1.17;;;;;;;2.78;85.00;100731.69;5092081;28;20048;-69
2023/01/23 07:21:40;;;;;;;1.00;1.00;;;;;;;2.80;84.81;100732.63;5093527;28;20390;-69
2023/01/23 07:24:08;;;;;;;4.03;2.53;;;;;;;2.81;84.91;100724.28;5093316;28;20425;-69
2023/01/23 07:26:37;;;;;;;1.13;1.13;;;;;;;2.81;85.14;100724.28;5093384;28;20693;-69
2023/01/23 07:29:08;;;;;;;0.63;0.63;;;;;;;2.84;84.39;100734.47;5093106;28;20485;-69
2023/01/23 07:31:37;;;;;;;2.88;2.67;;;;;;;2.85;84.41;100732.06;5093415;28;20037;-69
2023/01/23 07:34:08;;;;;;;0.43;0.43;;;;;;;2.88;84.60;100731.34;5091874;28;20048;-69
2023/01/23 07:36:37;;;;;;;0.93;0.90;;;;;;;2.90;84.88;100724.72;5093091;28;20050;-69
2023/01/23 07:39:06;;;;;;;4.18;1.73;;;;;;;2.93;83.97;100724.84;5092968;28;20127;-69
2023/01/23 07:41:34;;;;;;;0.60;0.60;;;;;;;2.95;84.78;100733.34;5092683;28;20181;-69
2023/01/23 07:44:09;;;;;;;2.88;2.65;;;;;;;2.93;84.83;100725.69;5092940;28;20691;-69
2023/01/23 07:46:38;;;;;;;0.95;0.95;;;;;;;3.02;84.44;100741.28;5096412;28;20389;-70
2023/01/23 07:49:08;;;;;;;1.30;1.20;;;;;;;3.07;84.33;100736.44;5096272;28;20090;-69
2023/01/23 07:51:37;;;;;;;1.08;1.00;;;;;;;3.07;83.97;100733.91;5095996;28;20066;-70
2023/01/23 07:54:06;;;;;;;2.42;2.10;;;;;;;3.12;83.32;100753.47;5094883;28;20095;-69
2023/01/23 07:56:35;;;;;;;4.25;2.10;;;;;;;3.14;83.01;100746.00;5096058;28;20048;-69
2023/01/23 07:59:03;;;;;;;1.02;1.02;;;;;;;3.08;83.65;100730.56;5093651;28;20040;-69
2023/01/23 08:01:32;;;;;;;4.13;2.67;;;;;;;3.11;82.66;100733.25;5096028;28;20443;-69
2023/01/23 08:04:01;;;;;;;1.47;1.37;;;;;;;3.08;83.30;100738.16;5096397;28;20083;-68
2023/01/23 08:06:32;;;;;;;1.58;1.13;;;;;;;3.04;82.99;100731.25;5096301;28;20350;-69
2023/01/23 08:09:01;;;;;;;1.02;1.00;;;;;;;3.07;82.17;100736.44;5096351;28;20194;-68
2023/01/23 08:11:30;;;;;;;1.20;0.87;;;;;;;3.08;82.56;100740.66;5095891;28;20090;-69
2023/01/23 08:14:01;;;;;;;0.50;0.50;;;;;;;2.89;82.91;100706.19;5095755;28;20040;-68
2023/01/23 08:16:30;;;;;;;0.32;0.32;;;;;;;3.08;82.43;100730.56;5096263;28;20071;-68
2023/01/23 08:18:59;;;;;;;0.75;0.75;;;;;;;3.16;83.10;100744.41;5096635;28;20123;-68
2023/01/23 08:21:28;;;;;;;2.10;1.67;;;;;;;3.19;82.33;100739.53;5095805;28;20040;-69
2023/01/23 08:24:01;;;;;;;1.63;1.53;;;;;;;3.26;82.30;100746.56;5095582;28;20048;-68
2023/01/23 08:26:30;;;;;;;0.75;0.73;;;;;;;3.28;82.78;100752.53;5095645;28;20508;-69
2023/01/23 08:28:59;;;;;;;1.95;1.85;;;;;;;3.32;82.72;100741.78;5095879;28;20052;-70
2023/01/23 08:31:28;;;;;;;0.43;0.43;;;;;;;3.36;82.41;100748.69;5095261;28;20040;-69
2023/01/23 08:33:57;;;;;;;0.70;0.70;;;;;;;3.36;82.15;100743.63;5095849;28;20093;-69
2023/01/23 08:36:26;;;;;;;1.02;0.98;;;;;;;3.38;82.57;100744.59;5093945;28;20101;-68
2023/01/23 08:38:55;;;;;;;0.63;0.63;;;;;;;3.42;82.11;100738.00;5094703;28;20042;-69
2023/01/23 08:41:25;;;;;;;0.43;0.43;;;;;;;3.48;82.50;100744.19;5092636;28;20039;-70
2023/01/23 08:43:56;;;;;;;0.60;0.60;;;;;;;3.56;82.40;100739.47;5095199;28;20048;-68
2023/01/23 08:46:24;;;;;;;2.58;2.38;;;;;;;3.56;82.05;100732.78;5096127;28;20454;-69
2023/01/23 08:48:53;;;;;;;0.90;0.90;;;;;;;3.68;81.86;100738.38;5095448;28;20040;-69
2023/01/23 08:51:22;;;;;;;0.52;0.52;;;;;;;3.72;82.15;100747.78;5094954;28;20081;-69
2023/01/23 08:53:52;;;;;;;0.40;0.40;;;;;;;3.72;81.29;100740.22;5094579;28;20051;-69
2023/01/23 08:56:24;;;;;;;0.60;0.60;;;;;;;3.84;81.33;100755.88;5095083;28;20445;-69
2023/01/23 08:58:54;;;;;;;0.57;0.57;;;;;;;3.89;80.90;100759.47;5095088;28;20044;-70
2023/01/23 09:01:25;;;;;;;0.40;0.40;;;;;;;3.97;81.41;100768.25;5094890;28;20044;-70
2023/01/23 09:03:54;;;;;;;0.32;0.32;;;;;;;4.05;80.55;100761.84;5094653;28;20750;-70
2023/01/23 09:06:23;;;;;;;4.50;2.17;;;;;;;4.14;80.74;100765.56;5093920;28;20040;-71
2023/01/23 09:08:52;;;;;;;;;;;;;;;4.18;80.66;100762.38;5095208;28;20040;-70
2023/01/23 09:11:22;;;;;;;1.38;1.27;;;;;;;4.21;80.48;100767.56;5095047;28;20328;-69
2023/01/23 09:13:52;;;;;;;1.42;1.33;;;;;;;4.23;80.36;100760.91;5094985;28;20149;-69
2023/01/23 09:16:22;;;;;;;4.07;3.40;;;;;;;4.32;80.14;100768.91;5094921;28;20497;-71
2023/01/23 09:18:50;;;;;;;0.77;0.77;;;;;;;4.35;80.00;100762.28;5094797;28;20048;-69
2023/01/23 09:21:19;;;;;;;1.75;1.65;;;;;;;4.37;80.47;100767.38;5095247;28;20119;-68
2023/01/23 09:23:48;;;;;;;0.50;0.50;;;;;;;4.41;79.99;100769.25;5094631;28;20119;-69
2023/01/23 09:26:17;;;;;;;1.42;1.33;;;;;;;4.46;80.03;100760.22;5094742;28;20068;-69
2023/01/23 09:28:47;;;;;;;0.85;0.85;;;;;;;4.51;80.09;100753.69;5088104;28;20378;-69
2023/01/23 09:31:17;;;;;;;5.63;2.70;;;;;;;4.52;79.76;100760.44;5079830;28;20037;-68
2023/01/23 09:33:48;;;;;;;1.80;1.70;;;;;;;4.53;79.61;100770.63;5076611;28;20049;-69
2023/01/23 09:36:18;;;;;;;1.70;1.60;;;;;;;4.59;79.83;100772.53;5095038;28;20044;-69
2023/01/23 09:38:52;;;;;;;4.57;3.50;;;;;;;4.65;79.54;100768.56;5094479;28;20044;-69
2023/01/23 09:41:26;;;;;;;1.17;1.07;;;;;;;4.70;79.45;100771.31;5094494;28;20489;-69
2023/01/23 09:44:01;;;;;;;1.25;1.15;;;;;;;4.71;79.21;100767.97;5094796;28;20048;-69
2023/01/23 09:46:37;;;;;;;2.72;1.38;;;;;;;4.72;79.28;100769.69;5094551;28;20497;-69
2023/01/23 09:49:14;;;;;;;2.05;1.63;;;;;;;4.75;79.32;100772.38;5094810;28;20500;-69
2023/01/23 09:51:52;;;;;;;1.75;1.63;;;;;;;4.82;79.10;100774.34;5087778;28;20040;-69
2023/01/23 09:54:33;;;;;;;1.30;0.82;;;;;;;4.86;79.11;100772.78;5079478;28;20098;-68
2023/01/23 09:57:06;;;;;;;1.70;1.23;;;;;;;4.92;78.87;100773.88;5073928;28;20048;-69
2023/01/23 09:59:38;;;;;;;1.50;1.40;;;;;;;4.95;79.08;100763.88;5074164;28;20049;-69
2023/01/23 10:02:27;;;;;;;1.20;1.13;;;;;;;4.96;78.91;100762.22;5073927;28;20127;-68
2023/01/23 10:04:57;;;;;;;2.75;1.50;;;;;;;5.03;78.56;100772.63;5073908;28;20128;-68
2023/01/23 10:07:56;;;;;;;0.50;0.50;;;;;;;5.06;78.61;100772.72;5073366;28;20387;-68
2023/01/23 10:10:46;;;;;;;3.00;1.60;;;;;;;5.10;78.77;100764.47;5073676;28;20048;-68
2023/01/23 10:13:18;;;;;;;1.13;1.02;;;;;;;5.15;78.50;100770.56;5073793;28;20041;-69
2023/01/23 10:16:05;;;;;;;1.35;1.25;;;;;;;5.03;78.60;100749.00;5073683;28;20498;-68
2023/01/23 10:18:44;;;;;;;4.60;2.58;;;;;;;5.19;78.37;100772.41;5074031;28;20041;-68
2023/01/23 10:21:21;;;;;;;1.30;1.20;;;;;;;5.18;78.20;100765.63;5073649;28;20110;-68
2023/01/23 10:24:01;;;;;;;0.65;0.65;;;;;;;5.25;78.19;100760.00;5073949;28;20057;-68
2023/01/23 10:26:34;;;;;;;2.45;2.25;;;;;;;5.35;77.75;100757.00;5073902;28;20071;-68
2023/01/23 10:29:14;;;;;;;1.17;0.95;;;;;;;5.39;78.19;100753.78;5079876;28;20386;-68
2023/01/23 10:31:49;;;;;;;4.30;1.75;;;;;;;5.31;77.59;100722.25;5073701;28;20041;-70
2023/01/23 10:34:32;;;;;;;1.33;1.23;;;;;;;5.63;77.71;100747.88;5073759;28;20498;-70
2023/01/23 10:37:13;;;;;;;1.15;1.15;;;;;;;5.78;77.52;100748.44;5075323;28;20047;-68
2023/01/23 10:39:51;;;;;;;0.93;0.88;;;;;;;5.90;77.65;100738.78;5093631;28;20048;-68
2023/01/23 10:42:24;;;;;;;1.20;1.05;;;;;;;6.04;77.31;100742.63;5093486;28;20069;-70
2023/01/23 10:44:53;;;;;;;0.68;0.63;;;;;;;6.09;76.78;100752.09;5093613;28;20505;-69
2023/01/23 10:47:31;;;;;;;1.42;1.17;;;;;;;6.11;76.34;100747.09;5094078;28;20123;-68
2023/01/23 10:50:05;;;;;;;0.93;0.93;;;;;;;6.19;76.32;100743.13;5087342;28;20036;-68
2023/01/23 10:52:38;;;;;;;1.65;1.55;;;;;;;6.26;76.44;100734.97;5093352;28;20032;-70
2023/01/23 10:55:29;;;;;;;1.23;1.15;;;;;;;6.31;75.85;100735.09;5093660;28;20043;-70
2023/01/23 10:58:02;;;;;;;1.58;1.35;;;;;;;6.36;76.17;100736.97;5093454;28;20044;-69
2023/01/23 11:00:36;;;;;;;0.45;0.45;;;;;;;6.38;76.33;100730.25;5091028;28;20040;-70
2023/01/23 11:03:26;;;;;;;2.72;1.65;;;;;;;6.57;75.76;100727.53;5091379;28;20501;-69
2023/01/23 11:06:02;;;;;;;0.98;0.93;;;;;;;6.61;74.81;100721.75;5086871;28;20044;-69
2023/01/23 11:08:33;;;;;;;0.60;0.60;;;;;;;6.71;74.66;100721.22;5093236;28;20134;-68
2023/01/23 11:11:21;;;;;;;1.30;1.15;;;;;;;6.84;74.58;100721.59;5093326;28;20044;-69
2023/01/23 11:14:02;;;;;;;2.10;1.20;;;;;;;6.97;74.68;100708.44;5093260;28;20109;-69
2023/01/23 11:16:32;;;;;;;0.70;0.70;;;;;;;7.08;74.17;100702.03;5074824;28;20037;-71
2023/01/23 11:19:12;;;;;;;1.13;1.02;;;;;;;7.18;73.49;100704.88;5076606;28;20053;-69
2023/01/23 11:21:54;;;;;;;0.30;0.30;;;;;;;7.18;73.76;100712.50;5077226;28;20106;-68
2023/01/23 11:24:31;;;;;;;2.17;1.38;;;;;;;7.19;73.91;100703.19;5094480;28;20131;-68
2023/01/23 11:27:19;;;;;;;0.30;0.30;;;;;;;7.22;73.12;100695.69;5097528;28;20051;-68
2023/01/23 11:30:17;;;;;;;0.35;0.35;;;;;;;7.25;73.16;100695.75;5096995;28;20055;-69
2023/01/23 11:32:51;;;;;;;2.10;1.75;;;;;;;7.37;72.47;100693.56;5087771;28;20044;-68
2023/01/23 11:35:24;;;;;;;4.03;2.25;;;;;;;7.58;72.80;100685.69;5095247;28;20046;-69
2023/01/23 11:37:57;;;;;;;2.20;1.35;;;;;;;7.71;72.23;100688.59;5096716;28;20040;-69
2023/01/23 11:40:26;;;;;;;0.57;0.57;;;;;;;7.68;72.28;100687.66;5097238;28;20117;-69
2023/01/23 11:42:55;;;;;;;6.28;1.90;;;;;;;7.59;72.17;100683.19;5096677;28;20068;-69
2023/01/23 11:45:42;;;;;;;2.42;1.63;;;;;;;7.68;71.84;100678.34;5096694;28;20036;-68
2023/01/23 11:48:31;;;;;;;0.80;0.80;;;;;;;7.64;72.04;100676.56;5097439;28;20051;-68
2023/01/23 11:51:06;;;;;;;0.75;0.68;;;;;;;7.66;72.53;100680.00;5094596;28;20033;-70
2023/01/23 11:53:44;;;;;;;1.80;1.70;;;;;;;7.73;72.37;100676.78;5093541;28;20040;-69
2023/01/23 11:56:33;;;;;;;0.68;0.68;;;;;;;7.88;72.27;100679.75;5096416;28;20075;-69
2023/01/23 11:59:28;;;;;;;0.60;0.60;;;;;;;7.95;71.86;100684.16;5096531;28;20040;-68
2023/01/23 12:02:17;;;;;;;2.10;1.85;;;;;;;7.95;71.44;100686.69;5068227;28;20067;-69